Weather History for KFKA - September, 2013

Change the Weather History Date:

Friday, September 20, 2013

  Actual Average (KRST) Record (KRST)
Temperature  
Mean Temperature 57 °F 59 °F  
Max Temperature 64 °F 70 °F 92 °F (1908)
Min Temperature 49 °F 48 °F 28 °F (1991)
Degree Days  
Heating Degree Days 8 7  
Month to date heating degree days 85  
Since 1 July heating degree days 123  
Cooling Degree Days 0 1  
Month to date cooling degree days 45  
Year to date cooling degree days 570  
Growing Degree Days 7 (Base 50)    
Moisture  
Dew Point 53 °F    
Average Humidity 81    
Maximum Humidity 93    
Minimum Humidity 60    
Precipitation  
Precipitation 0.07 in 0.11 in 1.62 in (1986)
Month to date precipitation 2.36  
Year to date precipitation 26.55  
Snow  
Snow 0.00 in 0.00 in 0.00 in (2012)
Month to date snowfall 0.0  
Since 1 July snowfall 0.0  
Snow Depth -    
Sea Level Pressure  
Sea Level Pressure 29.87 in    
Wind  
Wind Speed 12 mph (WNW)    
Max Wind Speed 20 mph    
Max Gust Speed 30 mph    
Visibility 10 miles    
Events      
T = Trace of Precipitation, MM = Missing Value Source: NWS Daily Summary

Daily Weather History Graph

Daily Weather History Graph

Search for Another Location

Airport or City:

Trip Planner

Search our weather history database for the weather conditions in past years. The results will help you decide how hot, cold, wet, or windy it might be!

Date:

Astronomy

Sep. 20, 2013 Rise Set
Actual Time 6:53 AM CDT 7:09 PM CDT
Civil Twilight 6:25 AM CDT 7:37 PM CDT
Nautical Twilight 5:51 AM CDT 8:11 PM CDT
Astronomical Twilight 5:16 AM CDT 8:46 PM CDT
Moon 7:38 PM CDT (9/20) 8:12 AM CDT (9/20)
Length of Visible Light 13h 12m
Length of Day
12h 15m
Full, 98% of the Moon is Illuminated
Sep 20
Full
Sep 26
Last Quarter
Oct 4
New
Oct 11
First Quarter
Oct 18
Full

Hourly Weather History & Observations

Time (CDT) Temp. Dew Point Humidity Pressure Visibility Wind Dir Wind Speed Gust Speed Precip Events Conditions
12:16 AM 64.9 °F 63.0 °F 93% 29.80 in 10.0 mi WNW 8.1 mph - N/A   Mostly Cloudy
12:36 AM 64.9 °F 62.8 °F 93% 29.81 in 10.0 mi WNW 9.2 mph - N/A   Scattered Clouds
12:56 AM 64.9 °F 62.6 °F 92% 29.81 in 10.0 mi WNW 8.1 mph - N/A   Mostly Cloudy
1:16 AM 64.8 °F 62.4 °F 92% 29.81 in 10.0 mi WNW 10.4 mph - N/A   Overcast
1:37 AM 64.6 °F 62.2 °F 92% 29.82 in 10.0 mi West 10.4 mph - N/A   Overcast
1:56 AM 64.4 °F 61.2 °F 89% 29.82 in 10.0 mi WNW 9.2 mph - N/A   Overcast
2:16 AM 63.7 °F 60.1 °F 88% 29.84 in 10.0 mi WNW 11.5 mph 17.3 mph N/A   Overcast
2:36 AM 63.1 °F 58.1 °F 84% 29.84 in 10.0 mi WNW 12.7 mph - N/A   Overcast
2:56 AM 62.2 °F 56.7 °F 82% 29.84 in 10.0 mi WNW 13.8 mph 17.3 mph N/A   Overcast
3:16 AM 61.7 °F 55.4 °F 80% 29.83 in 10.0 mi WNW 10.4 mph 18.4 mph N/A   Overcast
3:36 AM 61.0 °F 55.0 °F 81% 29.84 in 10.0 mi WNW 11.5 mph - N/A   Overcast
3:56 AM 60.4 °F 54.1 °F 80% 29.84 in 10.0 mi WNW 12.7 mph 19.6 mph N/A   Overcast
4:16 AM 59.2 °F 53.6 °F 82% 29.84 in 10.0 mi WNW 11.5 mph 16.1 mph N/A   Mostly Cloudy
4:36 AM 58.5 °F 53.6 °F 84% 29.84 in 10.0 mi WNW 11.5 mph 18.4 mph N/A   Scattered Clouds
4:56 AM 58.1 °F 53.6 °F 85% 29.84 in 10.0 mi WNW 10.4 mph - N/A   Scattered Clouds
5:16 AM 58.1 °F 53.6 °F 85% 29.83 in 10.0 mi WNW 9.2 mph - N/A   Mostly Cloudy
5:36 AM 57.7 °F 53.6 °F 86% 29.84 in 10.0 mi WNW 11.5 mph - N/A   Overcast
5:56 AM 57.6 °F 53.2 °F 85% 29.85 in 10.0 mi WNW 13.8 mph 19.6 mph N/A   Overcast
6:16 AM 56.7 °F 52.9 °F 87% 29.85 in 10.0 mi WNW 12.7 mph 17.3 mph N/A   Mostly Cloudy
6:36 AM 56.1 °F 52.2 °F 87% 29.85 in 10.0 mi WNW 15.0 mph - N/A   Scattered Clouds
6:56 AM 55.4 °F 51.6 °F 87% 29.86 in 10.0 mi WNW 12.7 mph 20.7 mph N/A   Clear
7:16 AM 54.9 °F 51.8 °F 89% 29.86 in 10.0 mi WNW 10.4 mph 18.4 mph N/A   Clear
7:36 AM 54.7 °F 52.0 °F 91% 29.87 in 10.0 mi West 10.4 mph 16.1 mph N/A   Scattered Clouds
7:57 AM 55.4 °F 51.8 °F 88% 29.87 in 10.0 mi WNW 17.3 mph - N/A   Overcast
8:16 AM 54.5 °F 51.3 °F 89% 29.88 in 10.0 mi WNW 13.8 mph 23.0 mph N/A   Mostly Cloudy
8:36 AM 55.0 °F 51.6 °F 88% 29.88 in 10.0 mi WNW 10.4 mph - N/A   Overcast
8:56 AM 56.5 °F 52.0 °F 85% 29.87 in 10.0 mi WNW 12.7 mph 20.7 mph N/A   Overcast
9:16 AM 56.5 °F 51.8 °F 84% 29.88 in 10.0 mi WNW 11.5 mph - N/A   Overcast
9:36 AM 55.9 °F 51.3 °F 84% 29.89 in 10.0 mi WNW 17.3 mph 20.7 mph N/A   Overcast
9:56 AM 55.8 °F 50.9 °F 84% 29.89 in 10.0 mi WNW 10.4 mph 20.7 mph N/A   Overcast
10:16 AM 56.7 °F 51.4 °F 83% 29.89 in 10.0 mi NW 11.5 mph 18.4 mph N/A   Overcast
10:37 AM 56.8 °F 51.1 °F 81% 29.89 in 10.0 mi NW 18.4 mph - N/A   Overcast
10:56 AM 57.6 °F 51.8 °F 81% 29.89 in 10.0 mi WNW 12.7 mph 20.7 mph N/A   Overcast
11:17 AM 57.2 °F 51.8 °F 82% 29.89 in 10.0 mi WNW 16.1 mph 21.9 mph N/A   Overcast
11:37 AM 57.7 °F 52.0 °F 81% 29.89 in 10.0 mi WNW 15.0 mph 19.6 mph N/A   Overcast
11:56 AM 58.8 °F 52.0 °F 78% 29.89 in 10.0 mi WNW 13.8 mph 18.4 mph N/A   Overcast
12:16 PM 59.0 °F 52.5 °F 79% 29.89 in 10.0 mi WNW 11.5 mph 17.3 mph N/A   Overcast
12:36 PM 59.2 °F 52.7 °F 79% 29.89 in 10.0 mi WNW 16.1 mph 20.7 mph N/A   Overcast
12:56 PM 59.7 °F 53.2 °F 79% 29.88 in 10.0 mi WNW 15.0 mph - N/A   Overcast
1:17 PM 59.9 °F 53.4 °F 79% 29.88 in 10.0 mi West 15.0 mph 20.7 mph N/A   Overcast
1:36 PM 61.0 °F 53.8 °F 77% 29.87 in 10.0 mi West 13.8 mph - N/A   Overcast
1:56 PM 60.4 °F 53.6 °F 78% 29.87 in 10.0 mi NW 16.1 mph 21.9 mph N/A   Overcast
2:16 PM 61.5 °F 53.1 °F 74% 29.87 in 10.0 mi WNW 19.6 mph 29.9 mph N/A   Overcast
2:36 PM 61.0 °F 52.9 °F 75% 29.87 in 10.0 mi WNW 16.1 mph 21.9 mph N/A   Overcast
2:56 PM 61.3 °F 52.5 °F 73% 29.87 in 10.0 mi WNW 15.0 mph 21.9 mph N/A   Overcast
3:17 PM 61.9 °F 52.7 °F 72% 29.87 in 10.0 mi WNW 17.3 mph 26.5 mph N/A   Mostly Cloudy
3:36 PM 63.0 °F 52.5 °F 69% 29.87 in 10.0 mi NW 17.3 mph 23.0 mph N/A   Overcast
3:56 PM 63.3 °F 52.2 °F 67% 29.87 in 10.0 mi NW 17.3 mph 21.9 mph N/A   Mostly Cloudy
4:16 PM 62.6 °F 51.4 °F 67% 29.87 in 10.0 mi WNW 16.1 mph 24.2 mph N/A   Mostly Cloudy
4:36 PM 63.5 °F 51.4 °F 65% 29.87 in 10.0 mi WNW 16.1 mph 28.8 mph N/A   Scattered Clouds
4:57 PM 63.9 °F 50.9 °F 63% 29.87 in 10.0 mi WNW 15.0 mph 19.6 mph N/A   Clear
5:16 PM 63.5 °F 49.5 °F 60% 29.87 in 10.0 mi WNW 12.7 mph 19.6 mph N/A   Clear
5:36 PM 63.0 °F 50.2 °F 63% 29.87 in 10.0 mi WNW 13.8 mph 18.4 mph N/A   Scattered Clouds
5:56 PM 61.0 °F 50.2 °F 68% 29.87 in 10.0 mi WNW 12.7 mph - N/A   Scattered Clouds
6:17 PM 60.8 °F 49.5 °F 66% 29.88 in 10.0 mi WNW 15.0 mph - N/A   Mostly Cloudy
6:36 PM 59.9 °F 49.1 °F 67% 29.88 in 10.0 mi WNW 12.7 mph - N/A   Overcast
6:56 PM 59.4 °F 49.6 °F 70% 29.89 in 10.0 mi WNW 9.2 mph - N/A   Overcast
7:16 PM 58.6 °F 50.4 °F 74% 29.89 in 10.0 mi WNW 9.2 mph - N/A   Overcast
7:36 PM 57.7 °F 50.2 °F 76% 29.90 in 10.0 mi WNW 12.7 mph - N/A   Mostly Cloudy
7:56 PM 57.6 °F 49.5 °F 74% 29.90 in 10.0 mi WNW 15.0 mph - N/A   Mostly Cloudy
8:16 PM 56.5 °F 49.5 °F 77% 29.91 in 10.0 mi NW 12.7 mph - N/A   Scattered Clouds
8:35 PM 55.2 °F 49.3 °F 80% 29.92 in 10.0 mi WNW 11.5 mph - N/A   Scattered Clouds
8:56 PM 54.1 °F 49.1 °F 83% 29.92 in 10.0 mi WNW 10.4 mph - N/A   Clear
9:16 PM 54.3 °F 49.1 °F 83% 29.92 in 10.0 mi WNW 11.5 mph 17.3 mph N/A   Mostly Cloudy
9:36 PM 54.0 °F 49.1 °F 84% 29.93 in 10.0 mi WNW 9.2 mph - N/A   Overcast
9:56 PM 53.6 °F 48.9 °F 84% 29.93 in 10.0 mi WNW 9.2 mph - N/A   Overcast
10:16 PM 52.7 °F 48.6 °F 86% 29.93 in 10.0 mi WNW 11.5 mph - N/A   Scattered Clouds
10:36 PM 52.0 °F 48.2 °F 87% 29.93 in 10.0 mi WNW 10.4 mph - N/A   Scattered Clouds
10:56 PM 51.1 °F 48.0 °F 89% 29.93 in 10.0 mi WNW 9.2 mph - N/A   Scattered Clouds
11:16 PM 50.5 °F 47.7 °F 90% 29.94 in 10.0 mi WNW 10.4 mph - N/A   Clear
11:36 PM 50.0 °F 47.3 °F 90% 29.94 in 10.0 mi WNW 9.2 mph - N/A   Clear
11:56 PM 49.6 °F 47.1 °F 91% 29.93 in 10.0 mi WNW 8.1 mph - N/A   Scattered Clouds